Etusivu
METAR-TAF:

METAR-TAF

Lentoasemat :

Snohomish County Airport (Paine Field)

Everett, Washington, Yhdysvallat

Leveyspiiri: 47-55-23N, Pituuspiiri: 122-16-57W, korkeus merenpinnasta: 184 m

Tämänhetkinen sää

Tämä raportti tehtiin 15 minuuttia sitten, kello 12.53 UTC
Tuuli 7 kn pohjoisesta
Lämpötila 12°C
Kosteus 94%
Ilmanpaine 1020 hPa
Näkyvyys: 16.1 km
selkeää

METAR: KPAE 291253Z AUTO 36007KT 10SM CLR 12/11 A3012 RMK AO2 SLP199 T01220111

Aika: 06:08 (13:08 UTC)

Sääennuste

Tämä raportti tehtiin 1 tunti ja 47 minuuttia sitten, kello 11.21 UTC
Ennuste voimassa 29. päivästä klo 12 UTC - 30. päivään klo 12 UTC
Tuuli 6 kn pohjoisesta
Näkyvyys: 10 km
selkeää
From 30. päivästä klo 0400 UTC
Tuuli kn pohjoisesta
Näkyvyys: 10 km
Hajonneita pilviä 20000 ft:n korkeudessa

TAF: KPAE 291121Z 2912/3012 35006KT P6SM SKC FM300400 00000KT P6SM BKN200

Säähavainnot ja -ennusteet yli 4000 lentoasemalta (METAR- ja TAF-raportit).

Käytössä olevat sääasemat on merkitty karttaan keltaisilla ja punaisilla pisteillä.

Aseta hiiri pisteen päälle nähdäksesi sääaseman nimen.

Klikkaa sitten nähdäksesi säähavainnot ja -ennusteet.

Kartan vaihtaminen: klikkaa mustalla rastilla varustettuja vihreitä pisteitä, niin voit zoomata sisään; viivalla varustettua vihreää pistettä, niin voit zoomata ulos tai vihreitä nuolia, niin pääset viereisille kartoille.


METAR-TAF: